Time;durP1;ratioP1;P1;durP2;ratioP2;P2;SDS_P1;SDS_P2;PMS_P1;PMS_P2;Temp;Humidity;BMP_temperature;BMP_pressure;BME280_temperature;BME280_humidity;BME280_pressure;Samples;Min_cycle;Max_cycle;Signal;HPM_P1;HPM_P2
2020/12/29 00:01:47;;;;;;;5.03;1.35;;;20.60;53.40;;;;;;5021674;28;20116;-65
2020/12/29 00:04:15;;;;;;;2.75;1.20;;;20.60;53.40;;;;;;5026469;28;20029;-65
2020/12/29 00:06:45;;;;;;;3.85;1.20;;;20.50;53.40;;;;;;5032886;28;20359;-65
2020/12/29 00:09:11;;;;;;;3.25;1.10;;;20.60;53.40;;;;;;5030038;28;20029;-65
2020/12/29 00:11:38;;;;;;;4.05;1.20;;;20.50;53.30;;;;;;5023227;28;20144;-65
2020/12/29 00:14:03;;;;;;;2.83;1.27;;;20.50;53.80;;;;;;5025059;28;20060;-64
2020/12/29 00:16:29;;;;;;;5.40;1.05;;;20.50;53.20;;;;;;5028525;28;20183;-65
2020/12/29 00:18:55;;;;;;;3.08;1.10;;;20.50;53.20;;;;;;5025196;28;20036;-65
2020/12/29 00:21:21;;;;;;;4.47;1.30;;;20.50;53.20;;;;;;5028316;28;20467;-65
2020/12/29 00:23:47;;;;;;;3.47;1.17;;;20.50;53.70;;;;;;5033711;28;20574;-65
2020/12/29 00:26:13;;;;;;;3.50;1.20;;;20.40;53.10;;;;;;5043486;28;20029;-65
2020/12/29 00:28:39;;;;;;;6.15;1.60;;;20.40;53.10;;;;;;5042419;28;20041;-65
2020/12/29 00:31:05;;;;;;;2.92;1.17;;;20.40;53.10;;;;;;5025928;28;20128;-65
2020/12/29 00:33:31;;;;;;;5.45;1.40;;;20.40;53.10;;;;;;5028149;28;20738;-65
2020/12/29 00:35:57;;;;;;;6.05;1.10;;;20.40;53.10;;;;;;5042004;28;20372;-65
2020/12/29 00:38:23;;;;;;;3.13;1.30;;;20.40;53.10;;;;;;5033288;28;20037;-65
2020/12/29 00:40:49;;;;;;;3.78;1.38;;;20.30;53.00;;;;;;5027910;28;20492;-65
2020/12/29 00:43:14;;;;;;;1.95;1.00;;;20.30;53.00;;;;;;5027838;28;20120;-65
2020/12/29 00:45:40;;;;;;;2.95;1.10;;;20.30;53.00;;;;;;5036129;28;20106;-65
2020/12/29 00:48:05;;;;;;;4.18;1.30;;;20.30;53.00;;;;;;5037322;28;20060;-65
2020/12/29 00:50:31;;;;;;;2.33;1.20;;;20.30;53.10;;;;;;5035744;28;20421;-65
2020/12/29 00:52:56;;;;;;;4.55;1.20;;;20.30;53.00;;;;;;5041927;28;20032;-65
2020/12/29 00:55:22;;;;;;;3.53;1.30;;;20.30;53.00;;;;;;5034166;28;20107;-65
2020/12/29 00:57:47;;;;;;;3.90;1.10;;;20.30;53.10;;;;;;5041846;28;20514;-65
2020/12/29 01:00:13;;;;;;;3.65;1.08;;;20.30;53.00;;;;;;5025986;28;20079;-65
2020/12/29 01:02:39;;;;;;;3.00;1.33;;;20.20;53.00;;;;;;5024461;28;20136;-65
2020/12/29 01:05:04;;;;;;;1.77;1.00;;;20.20;53.00;;;;;;5026134;28;20029;-65
2020/12/29 01:07:30;;;;;;;2.67;1.08;;;20.30;53.00;;;;;;5025944;28;20374;-65
2020/12/29 01:09:55;;;;;;;3.92;1.30;;;20.20;53.00;;;;;;5025842;28;20051;-65
2020/12/29 01:12:21;;;;;;;3.50;1.35;;;20.20;53.00;;;;;;5025816;28;20060;-65
2020/12/29 01:14:46;;;;;;;2.83;1.33;;;20.20;53.00;;;;;;5025519;28;20128;-64
2020/12/29 01:17:13;;;;;;;5.82;1.50;;;20.20;53.00;;;;;;5042403;28;20033;-65
2020/12/29 01:19:39;;;;;;;4.47;1.60;;;20.20;53.00;;;;;;5044258;28;20074;-65
2020/12/29 01:22:05;;;;;;;6.05;1.40;;;20.20;53.00;;;;;;5046708;28;20033;-65
2020/12/29 01:24:30;;;;;;;3.70;1.30;;;20.20;53.00;;;;;;5032834;28;20031;-65
2020/12/29 01:26:57;;;;;;;3.22;1.35;;;20.10;52.90;;;;;;5023721;28;20033;-65
2020/12/29 01:29:23;;;;;;;5.70;1.20;;;20.10;53.00;;;;;;5025858;28;20513;-65
2020/12/29 01:31:48;;;;;;;3.53;1.10;;;20.10;52.90;;;;;;5031032;28;20072;-65
2020/12/29 01:34:14;;;;;;;2.78;1.10;;;20.10;52.90;;;;;;5035457;28;20064;-65
2020/12/29 01:36:40;;;;;;;3.22;1.20;;;20.10;52.90;;;;;;5024754;28;20025;-65
2020/12/29 01:39:05;;;;;;;2.72;1.10;;;20.10;53.00;;;;;;5030190;28;20040;-65
2020/12/29 01:41:35;;;;;;;3.72;1.10;;;20.10;53.00;;;;;;5033992;28;20144;-65
2020/12/29 01:44:12;;;;;;;;;;;20.10;52.90;;;;;;5044433;28;20664;-65
2020/12/29 01:46:46;;;;;;;2.92;1.00;;;20.10;53.00;;;;;;5030232;28;20025;-65
2020/12/29 01:49:13;;;;;;;5.13;1.20;;;20.10;52.90;;;;;;5025906;28;20148;-65
2020/12/29 01:51:39;;;;;;;3.75;1.10;;;20.10;52.90;;;;;;5025592;28;20100;-65
2020/12/29 01:54:05;;;;;;;2.60;1.02;;;20.00;52.90;;;;;;5026249;28;20492;-65
2020/12/29 01:56:37;;;;;;;3.90;1.20;;;20.00;52.90;;;;;;5023408;28;20049;-65
2020/12/29 01:59:08;;;;;;;2.03;1.00;;;20.00;52.90;;;;;;5026318;28;20033;-65
2020/12/29 02:01:36;;;;;;;3.00;1.20;;;20.00;52.90;;;;;;5024810;28;20072;-64
2020/12/29 02:04:02;;;;;;;2.63;1.10;;;20.00;52.90;;;;;;5027705;28;20033;-64
2020/12/29 02:06:28;;;;;;;2.60;1.05;;;20.00;52.90;;;;;;5025419;28;20372;-65
2020/12/29 02:08:53;;;;;;;2.72;1.08;;;20.00;52.90;;;;;;5029665;28;20360;-65
2020/12/29 02:11:19;;;;;;;3.00;1.20;;;20.00;52.90;;;;;;5032353;28;20030;-65
2020/12/29 02:13:45;;;;;;;2.63;1.10;;;19.90;52.80;;;;;;5039565;28;20037;-66
2020/12/29 02:16:10;;;;;;;1.98;1.05;;;19.90;52.90;;;;;;5039956;28;20349;-65
2020/12/29 02:18:36;;;;;;;2.60;1.00;;;19.90;53.00;;;;;;5031815;28;20112;-65
2020/12/29 02:21:02;;;;;;;1.85;0.93;;;19.90;52.90;;;;;;5031066;28;20307;-65
2020/12/29 02:23:28;;;;;;;3.25;1.10;;;19.90;52.80;;;;;;5033438;28;20029;-65
2020/12/29 02:25:54;;;;;;;4.10;1.13;;;19.90;52.80;;;;;;5024487;28;20136;-65
2020/12/29 02:28:19;;;;;;;2.92;1.10;;;19.90;52.90;;;;;;5042028;28;20028;-65
2020/12/29 02:30:45;;;;;;;2.60;1.00;;;19.90;53.50;;;;;;5025226;28;20045;-65
2020/12/29 02:33:10;;;;;;;2.88;1.00;;;19.80;52.80;;;;;;5023555;28;20095;-65
2020/12/29 02:35:36;;;;;;;4.40;1.17;;;19.90;52.90;;;;;;5022744;28;20038;-65
2020/12/29 02:38:01;;;;;;;2.00;0.98;;;19.80;52.90;;;;;;5024951;28;20099;-65
2020/12/29 02:40:27;;;;;;;2.45;0.95;;;19.80;52.80;;;;;;5025126;28;20472;-65
2020/12/29 02:42:53;;;;;;;3.63;1.00;;;19.80;52.90;;;;;;5036402;28;20088;-65
2020/12/29 02:45:18;;;;;;;3.72;1.10;;;19.80;52.90;;;;;;5040132;28;20443;-65
2020/12/29 02:47:44;;;;;;;2.65;1.00;;;19.80;52.90;;;;;;5040000;28;20033;-65
2020/12/29 02:50:09;;;;;;;2.30;1.00;;;19.80;52.90;;;;;;5032206;28;20487;-65
2020/12/29 02:52:35;;;;;;;2.45;1.30;;;19.80;53.00;;;;;;5033221;28;20399;-65
2020/12/29 02:55:01;;;;;;;2.22;0.88;;;19.80;52.90;;;;;;5033222;28;20063;-65
2020/12/29 02:57:26;;;;;;;2.00;1.02;;;19.80;52.90;;;;;;5032928;28;20083;-65
2020/12/29 02:59:52;;;;;;;2.92;1.65;;;19.80;52.90;;;;;;5033647;28;20086;-65
2020/12/29 03:02:18;;;;;;;2.53;0.90;;;19.70;52.90;;;;;;5030620;28;20100;-65
2020/12/29 03:04:43;;;;;;;3.63;1.15;;;19.80;53.00;;;;;;5030417;28;20051;-65
2020/12/29 03:07:10;;;;;;;1.85;1.00;;;19.70;52.90;;;;;;5041949;28;20055;-64
2020/12/29 03:09:36;;;;;;;3.15;1.20;;;19.70;52.90;;;;;;5046897;28;20033;-65
2020/12/29 03:12:01;;;;;;;2.20;1.02;;;19.80;53.00;;;;;;5041596;28;20026;-65
2020/12/29 03:14:27;;;;;;;1.70;0.80;;;19.70;52.90;;;;;;5046017;28;20072;-64
2020/12/29 03:16:53;;;;;;;2.08;0.80;;;19.70;52.90;;;;;;5044365;28;20487;-65
2020/12/29 03:19:18;;;;;;;1.92;0.98;;;19.70;52.90;;;;;;5048007;28;20021;-65
2020/12/29 03:21:44;;;;;;;1.85;0.90;;;19.70;53.00;;;;;;5028877;28;20120;-65
2020/12/29 03:24:09;;;;;;;1.80;0.90;;;19.70;52.90;;;;;;5044633;28;20063;-64
2020/12/29 03:26:35;;;;;;;2.80;0.90;;;19.70;52.90;;;;;;5026826;28;20463;-64
2020/12/29 03:29:01;;;;;;;2.05;1.05;;;19.70;53.00;;;;;;5028281;28;20411;-64
2020/12/29 03:31:26;;;;;;;2.75;0.85;;;19.70;52.90;;;;;;5032147;28;20029;-64
2020/12/29 03:33:52;;;;;;;2.60;0.90;;;19.70;53.00;;;;;;5027746;28;20038;-64
2020/12/29 03:36:18;;;;;;;1.73;0.82;;;19.70;52.90;;;;;;5027787;28;20104;-64
2020/12/29 03:38:43;;;;;;;1.88;0.80;;;19.70;52.90;;;;;;5030901;28;20033;-64
2020/12/29 03:41:09;;;;;;;1.67;0.90;;;19.60;52.90;;;;;;5032209;28;20507;-64
2020/12/29 03:43:34;;;;;;;1.90;0.90;;;19.60;53.40;;;;;;5029047;28;20030;-64
2020/12/29 03:46:00;;;;;;;2.28;0.90;;;19.60;52.90;;;;;;5025305;28;20026;-64
2020/12/29 03:48:26;;;;;;;1.63;0.88;;;19.60;52.90;;;;;;5043151;28;20036;-64
2020/12/29 03:50:52;;;;;;;1.50;0.80;;;19.60;52.90;;;;;;5052837;28;20036;-64
2020/12/29 03:53:18;;;;;;;0.73;0.68;;;19.60;52.90;;;;;;5031004;28;20052;-64
2020/12/29 03:55:44;;;;;;;2.15;0.80;;;19.60;52.90;;;;;;5027203;28;20119;-64
2020/12/29 03:58:10;;;;;;;1.95;0.80;;;19.60;52.90;;;;;;5027793;28;20409;-64
2020/12/29 04:00:36;;;;;;;1.40;0.90;;;19.60;52.90;;;;;;5027104;28;20448;-64
2020/12/29 04:03:03;;;;;;;3.47;0.90;;;19.60;52.90;;;;;;5038497;28;20037;-64
2020/12/29 04:05:29;;;;;;;1.10;0.80;;;19.60;53.00;;;;;;5027003;28;20041;-64
2020/12/29 04:07:55;;;;;;;1.98;0.90;;;19.60;52.90;;;;;;5027278;28;20486;-64
2020/12/29 04:10:21;;;;;;;2.08;1.00;;;19.60;52.90;;;;;;5027069;28;20473;-65
2020/12/29 04:12:47;;;;;;;1.77;0.95;;;19.60;53.00;;;;;;5031198;28;20402;-65
2020/12/29 04:15:12;;;;;;;2.70;0.90;;;19.60;52.90;;;;;;5043224;28;20029;-65
2020/12/29 04:17:39;;;;;;;2.55;0.90;;;19.50;52.90;;;;;;5024399;28;20033;-65
2020/12/29 04:20:06;;;;;;;2.17;1.08;;;19.60;53.00;;;;;;5027689;28;20026;-65
2020/12/29 04:22:33;;;;;;;2.28;0.90;;;19.60;52.90;;;;;;5028277;28;20446;-65
2020/12/29 04:24:59;;;;;;;2.13;1.02;;;19.60;52.90;;;;;;5027078;28;20033;-65
2020/12/29 04:27:25;;;;;;;1.02;0.80;;;19.60;52.90;;;;;;5025661;28;20029;-65
2020/12/29 04:29:50;;;;;;;2.63;0.80;;;19.50;52.90;;;;;;5027334;28;20033;-65
2020/12/29 04:32:17;;;;;;;1.52;0.70;;;19.50;52.80;;;;;;5036069;28;20033;-65
2020/12/29 04:34:47;;;;;;;1.95;0.90;;;19.50;52.90;;;;;;5028064;28;20056;-65
2020/12/29 04:37:13;;;;;;;2.58;0.80;;;19.50;52.80;;;;;;5033698;28;20112;-65
2020/12/29 04:39:39;;;;;;;2.42;0.93;;;19.50;52.90;;;;;;5030046;28;20052;-65
2020/12/29 04:42:10;;;;;;;1.85;1.00;;;19.50;52.90;;;;;;5026650;28;20025;-65
2020/12/29 04:44:38;;;;;;;1.75;0.95;;;19.50;52.90;;;;;;5026070;28;20022;-65
2020/12/29 04:47:04;;;;;;;2.60;0.80;;;19.50;52.80;;;;;;5034539;28;20105;-65
2020/12/29 04:49:31;;;;;;;2.30;0.90;;;19.50;52.80;;;;;;5044359;28;20021;-65
2020/12/29 04:51:57;;;;;;;1.50;0.80;;;19.50;52.80;;;;;;5045172;28;20125;-65
2020/12/29 04:54:26;;;;;;;1.42;0.95;;;19.50;52.80;;;;;;5038636;28;20100;-65
2020/12/29 04:56:56;;;;;;;1.88;0.95;;;19.50;52.80;;;;;;5024112;28;20112;-65
2020/12/29 04:59:22;;;;;;;;;;;19.50;52.80;;;;;;5030103;28;20040;-65
2020/12/29 05:01:48;;;;;;;1.85;0.70;;;19.50;52.80;;;;;;5032844;28;20355;-66
2020/12/29 05:04:14;;;;;;;1.65;0.80;;;19.50;52.70;;;;;;5025686;28;20083;-66
2020/12/29 05:06:40;;;;;;;3.05;1.10;;;19.50;52.70;;;;;;5025640;28;20464;-66
2020/12/29 05:09:06;;;;;;;2.15;0.65;;;19.50;52.80;;;;;;5029331;28;20112;-65
2020/12/29 05:11:36;;;;;;;1.50;0.80;;;19.40;52.70;;;;;;5026434;28;20132;-65
2020/12/29 05:14:04;;;;;;;0.88;0.68;;;19.50;52.70;;;;;;5042980;28;20293;-65
2020/12/29 05:16:30;;;;;;;1.73;0.88;;;19.40;52.70;;;;;;5041688;28;20036;-65
2020/12/29 05:18:58;;;;;;;1.25;0.68;;;19.40;52.70;;;;;;5036418;28;20056;-65
2020/12/29 05:21:25;;;;;;;1.70;0.70;;;19.40;52.70;;;;;;5029240;28;20033;-65
2020/12/29 05:23:51;;;;;;;1.63;0.60;;;19.40;52.70;;;;;;5043497;28;20131;-65
2020/12/29 05:26:18;;;;;;;1.10;0.80;;;19.40;52.70;;;;;;5023076;28;20144;-65
2020/12/29 05:28:46;;;;;;;1.17;0.57;;;19.40;52.60;;;;;;5024980;28;20052;-65
2020/12/29 05:31:12;;;;;;;1.13;0.65;;;19.40;52.70;;;;;;5025553;28;20029;-65
2020/12/29 05:33:38;;;;;;;1.50;0.80;;;19.40;52.60;;;;;;5026723;28;20439;-65
2020/12/29 05:36:04;;;;;;;2.17;0.70;;;19.40;52.60;;;;;;5024215;28;20133;-65
2020/12/29 05:38:30;;;;;;;1.55;0.80;;;19.40;52.60;;;;;;5023724;28;20033;-65
2020/12/29 05:40:56;;;;;;;1.20;0.77;;;19.40;52.60;;;;;;5023198;28;20116;-65
2020/12/29 05:43:29;;;;;;;2.08;0.73;;;19.40;52.60;;;;;;5024903;28;20042;-65
2020/12/29 05:45:57;;;;;;;1.67;0.68;;;19.40;52.50;;;;;;5029722;28;20479;-65
2020/12/29 05:48:23;;;;;;;1.20;0.60;;;19.40;52.50;;;;;;5040896;28;20086;-65
2020/12/29 05:50:49;;;;;;;2.63;1.10;;;19.40;52.50;;;;;;5040560;28;20368;-65
2020/12/29 05:53:18;;;;;;;1.15;0.80;;;19.40;52.50;;;;;;5028815;28;20064;-65
2020/12/29 05:55:45;;;;;;;1.55;0.60;;;19.40;52.50;;;;;;5041393;28;20115;-65
2020/12/29 05:58:11;;;;;;;0.73;0.50;;;19.40;52.50;;;;;;5043930;28;20418;-65
2020/12/29 06:00:41;;;;;;;1.60;0.70;;;19.30;52.50;;;;;;5037548;28;20037;-65
2020/12/29 06:03:08;;;;;;;1.52;0.73;;;19.40;52.50;;;;;;5024464;28;20040;-65
2020/12/29 06:05:37;;;;;;;0.90;0.70;;;19.30;52.40;;;;;;5043413;28;20371;-65
2020/12/29 06:08:04;;;;;;;1.20;0.70;;;19.30;52.40;;;;;;5042456;28;20088;-65
2020/12/29 06:10:31;;;;;;;1.27;0.70;;;19.30;52.40;;;;;;5029862;28;20033;-66
2020/12/29 06:13:01;;;;;;;1.52;0.80;;;19.30;52.30;;;;;;5027288;28;20028;-66
2020/12/29 06:15:29;;;;;;;1.23;0.70;;;19.30;52.40;;;;;;5026670;28;20025;-65
2020/12/29 06:18:00;;;;;;;1.25;0.80;;;19.30;52.40;;;;;;5024033;28;20034;-65
2020/12/29 06:20:46;;;;;;;0.80;0.65;;;19.30;52.30;;;;;;5029553;28;20104;-65
2020/12/29 06:23:17;;;;;;;1.23;0.60;;;19.30;52.40;;;;;;5043263;28;20032;-65
2020/12/29 06:25:45;;;;;;;1.00;0.60;;;19.30;52.30;;;;;;5042197;28;20025;-66
2020/12/29 06:28:14;;;;;;;1.65;0.70;;;19.30;52.40;;;;;;5039554;28;20065;-66
2020/12/29 06:30:40;;;;;;;;;;;19.30;52.30;;;;;;5030339;28;20036;-66
2020/12/29 06:33:07;;;;;;;1.10;0.70;;;19.30;52.40;;;;;;5038948;28;19958;-66
2020/12/29 06:35:33;;;;;;;1.75;0.80;;;19.30;52.30;;;;;;5039647;28;20030;-66
2020/12/29 06:38:25;;;;;;;1.50;0.70;;;19.30;52.40;;;;;;5031729;28;20056;-66
2020/12/29 06:40:51;;;;;;;1.20;0.70;;;19.30;52.30;;;;;;5027517;28;20479;-66
2020/12/29 06:43:17;;;;;;;1.42;0.70;;;19.30;52.30;;;;;;5027389;28;20048;-66
2020/12/29 06:45:43;;;;;;;1.33;0.70;;;19.30;52.30;;;;;;5029448;28;20029;-66
2020/12/29 06:48:19;;;;;;;2.17;0.68;;;19.30;52.30;;;;;;5029845;28;20032;-65
2020/12/29 06:50:46;;;;;;;0.95;0.70;;;19.30;52.30;;;;;;5027566;28;20120;-65
2020/12/29 06:53:17;;;;;;;1.25;0.60;;;19.30;52.30;;;;;;5029366;28;20042;-65
2020/12/29 06:55:49;;;;;;;0.63;0.50;;;19.30;52.30;;;;;;5027746;28;20375;-65
2020/12/29 06:58:32;;;;;;;0.95;0.60;;;19.20;52.20;;;;;;5026989;28;20064;-65
2020/12/29 07:01:19;;;;;;;1.48;0.65;;;19.20;52.20;;;;;;5031681;28;20345;-65
2020/12/29 07:03:45;;;;;;;2.05;0.60;;;19.20;52.20;;;;;;5030727;28;20554;-65
2020/12/29 07:06:11;;;;;;;0.93;0.70;;;19.20;52.20;;;;;;5030458;28;20086;-65
2020/12/29 07:08:36;;;;;;;0.98;0.60;;;19.20;52.20;;;;;;5044471;28;20036;-65
2020/12/29 07:11:18;;;;;;;0.95;0.60;;;19.20;52.20;;;;;;5026594;28;20030;-65
2020/12/29 07:13:53;;;;;;;2.08;0.60;;;19.20;52.10;;;;;;5027678;28;20041;-65
2020/12/29 07:16:24;;;;;;;1.80;0.70;;;19.20;52.10;;;;;;5030991;28;20039;-65
2020/12/29 07:18:49;;;;;;;1.02;0.70;;;19.20;52.10;;;;;;5041654;28;20505;-65
2020/12/29 07:21:29;;;;;;;1.00;0.60;;;19.20;52.10;;;;;;5035100;28;20066;-65
2020/12/29 07:23:55;;;;;;;1.08;0.60;;;19.20;52.10;;;;;;5038580;28;20104;-65
2020/12/29 07:26:22;;;;;;;1.25;0.60;;;19.20;52.10;;;;;;5054330;28;20106;-65
2020/12/29 07:28:56;;;;;;;1.38;0.60;;;19.20;52.00;;;;;;5043416;28;20091;-65
2020/12/29 07:31:23;;;;;;;0.75;0.70;;;19.20;52.00;;;;;;5031245;28;20082;-65
2020/12/29 07:33:52;;;;;;;1.27;0.60;;;19.20;52.00;;;;;;5042762;28;20096;-65
2020/12/29 07:36:18;;;;;;;1.15;0.63;;;19.20;52.00;;;;;;5043404;28;20405;-65
2020/12/29 07:38:50;;;;;;;1.52;0.80;;;19.20;51.90;;;;;;5040972;28;20057;-65
2020/12/29 07:41:19;;;;;;;1.70;0.80;;;19.20;51.90;;;;;;5026274;28;20287;-65
2020/12/29 07:43:47;;;;;;;1.15;0.70;;;19.20;51.90;;;;;;5027983;28;20069;-65
2020/12/29 07:46:13;;;;;;;1.30;0.55;;;19.20;51.90;;;;;;5033041;28;20055;-65
2020/12/29 07:48:40;;;;;;;0.98;0.57;;;19.20;51.90;;;;;;5046230;28;20048;-65
2020/12/29 07:51:06;;;;;;;0.80;0.60;;;19.20;52.40;;;;;;5033445;28;20041;-65
2020/12/29 07:53:32;;;;;;;2.50;0.75;;;19.10;51.80;;;;;;5032018;28;20423;-65
2020/12/29 07:55:58;;;;;;;0.98;0.68;;;19.10;51.80;;;;;;5030823;28;20679;-65
2020/12/29 07:58:24;;;;;;;1.13;0.50;;;19.20;51.80;;;;;;5026233;28;20033;-65
2020/12/29 08:00:50;;;;;;;1.23;0.70;;;19.10;51.80;;;;;;5026312;28;20037;-65
2020/12/29 08:03:18;;;;;;;1.13;0.70;;;19.20;51.80;;;;;;5031727;28;20103;-65
2020/12/29 08:05:45;;;;;;;1.48;0.68;;;19.10;51.80;;;;;;5029644;28;20041;-65
2020/12/29 08:08:12;;;;;;;1.73;0.63;;;19.10;51.80;;;;;;5039407;28;20259;-65
2020/12/29 08:10:40;;;;;;;1.08;0.52;;;19.10;51.80;;;;;;5044982;28;20029;-65
2020/12/29 08:13:14;;;;;;;1.33;0.60;;;19.10;51.80;;;;;;5041186;28;20025;-65
2020/12/29 08:15:43;;;;;;;1.67;0.70;;;19.10;51.80;;;;;;5044095;28;20025;-65
2020/12/29 08:18:09;;;;;;;1.33;0.60;;;19.10;51.70;;;;;;5026956;28;20480;-65
2020/12/29 08:20:46;;;;;;;1.80;0.80;;;19.10;51.70;;;;;;5044691;28;20035;-65
2020/12/29 08:23:23;;;;;;;0.85;0.52;;;19.10;51.70;;;;;;5038418;28;20447;-65
2020/12/29 08:25:52;;;;;;;2.10;0.70;;;19.10;51.70;;;;;;5031590;28;20380;-65
2020/12/29 08:28:19;;;;;;;1.42;0.70;;;19.10;51.70;;;;;;5024915;28;20040;-65
2020/12/29 08:30:45;;;;;;;2.05;0.70;;;19.10;51.60;;;;;;5029740;28;20133;-65
2020/12/29 08:33:14;;;;;;;1.98;0.60;;;19.10;51.60;;;;;;5024757;28;20036;-64
2020/12/29 08:35:45;;;;;;;1.50;0.70;;;19.10;51.60;;;;;;5025011;28;20036;-64
2020/12/29 08:38:31;;;;;;;1.17;0.70;;;19.10;51.60;;;;;;5031128;28;20503;-64
2020/12/29 08:41:06;;;;;;;2.85;0.70;;;19.10;51.60;;;;;;5025059;28;20033;-64
2020/12/29 08:43:42;;;;;;;1.80;0.60;;;19.10;51.60;;;;;;5025331;28;20061;-64
2020/12/29 08:46:10;;;;;;;1.42;0.63;;;19.10;51.50;;;;;;5027531;28;20136;-64
2020/12/29 08:48:36;;;;;;;1.48;0.73;;;19.10;51.50;;;;;;5038079;28;20083;-64
2020/12/29 08:51:17;;;;;;;1.08;0.60;;;19.10;51.50;;;;;;5035883;28;20060;-64
2020/12/29 08:53:42;;;;;;;2.90;0.70;;;19.10;51.60;;;;;;5029813;28;20040;-64
2020/12/29 08:56:24;;;;;;;1.92;0.77;;;19.10;51.50;;;;;;5025064;28;20025;-64
2020/12/29 08:58:49;;;;;;;1.40;0.70;;;19.10;51.50;;;;;;5026982;28;20425;-64
2020/12/29 09:01:38;;;;;;;1.02;0.50;;;19.10;51.50;;;;;;5029699;28;20107;-64
2020/12/29 09:04:30;;;;;;;1.38;0.70;;;19.10;51.50;;;;;;5030079;28;20070;-64
2020/12/29 09:07:15;;;;;;;1.85;0.80;;;19.00;51.40;;;;;;5026235;28;20041;-65
2020/12/29 09:09:50;;;;;;;1.83;0.82;;;19.10;51.50;;;;;;5027711;28;20037;-65
2020/12/29 09:12:21;;;;;;;1.23;0.65;;;19.10;51.50;;;;;;5029004;28;20033;-64
2020/12/29 09:14:56;;;;;;;1.70;0.70;;;19.00;51.40;;;;;;5045172;28;20071;-64
2020/12/29 09:17:24;;;;;;;1.45;0.60;;;19.10;51.50;;;;;;5026527;28;20083;-63
2020/12/29 09:20:12;;;;;;;1.05;0.73;;;19.00;51.50;;;;;;5031226;28;20498;-63
2020/12/29 09:22:58;;;;;;;1.50;0.70;;;19.00;51.50;;;;;;5028177;28;20436;-63
2020/12/29 09:25:28;;;;;;;1.67;0.60;;;19.00;52.00;;;;;;5028600;28;20487;-63
2020/12/29 09:28:26;;;;;;;0.90;0.60;;;19.00;51.40;;;;;;5026584;28;20365;-64
2020/12/29 09:31:07;;;;;;;1.38;0.70;;;19.00;51.50;;;;;;5033271;28;20033;-64
2020/12/29 09:33:35;;;;;;;1.70;0.70;;;19.00;51.50;;;;;;5024827;28;20022;-64
2020/12/29 09:36:04;;;;;;;0.98;0.60;;;19.00;51.40;;;;;;5031085;28;20033;-64
2020/12/29 09:38:30;;;;;;;1.88;0.98;;;19.00;51.50;;;;;;5028903;28;20039;-64
2020/12/29 09:40:57;;;;;;;1.45;0.70;;;19.00;51.50;;;;;;5034999;28;20430;-64
2020/12/29 09:43:22;;;;;;;2.65;0.60;;;19.00;51.50;;;;;;5027189;28;20037;-64
2020/12/29 09:45:49;;;;;;;1.33;0.60;;;19.00;52.00;;;;;;5032503;28;20042;-64
2020/12/29 09:48:15;;;;;;;2.25;0.88;;;19.00;51.50;;;;;;5039781;28;20033;-64
2020/12/29 09:50:42;;;;;;;0.82;0.57;;;19.00;51.50;;;;;;5027456;28;20029;-64
2020/12/29 09:53:08;;;;;;;1.80;0.70;;;19.00;51.50;;;;;;5038397;28;20029;-64
2020/12/29 09:55:33;;;;;;;1.30;0.65;;;19.00;51.50;;;;;;5032044;28;20025;-65
2020/12/29 09:57:59;;;;;;;2.58;0.77;;;19.00;51.50;;;;;;5034240;28;20041;-65
2020/12/29 10:00:25;;;;;;;2.13;0.75;;;19.00;51.60;;;;;;5034019;28;20084;-65
2020/12/29 10:02:50;;;;;;;1.83;0.80;;;19.00;51.50;;;;;;5024210;28;20088;-65
2020/12/29 10:05:16;;;;;;;2.80;0.70;;;19.00;51.50;;;;;;5027330;28;20795;-65
2020/12/29 10:07:46;;;;;;;2.92;0.60;;;19.00;51.60;;;;;;5024719;28;20117;-65
2020/12/29 10:10:12;;;;;;;2.03;0.68;;;19.00;51.70;;;;;;5027912;28;20116;-65
2020/12/29 10:12:39;;;;;;;2.13;0.70;;;19.00;51.60;;;;;;5022089;28;20064;-65
2020/12/29 10:15:05;;;;;;;0.98;0.50;;;19.00;51.60;;;;;;5040475;28;20025;-65
2020/12/29 10:17:33;;;;;;;1.65;0.65;;;19.00;51.60;;;;;;5034212;28;20402;-65
2020/12/29 10:19:59;;;;;;;1.85;0.70;;;19.00;51.50;;;;;;5031514;28;20136;-65
2020/12/29 10:22:28;;;;;;;3.83;0.80;;;19.00;51.60;;;;;;5026477;28;20475;-65
2020/12/29 10:24:53;;;;;;;3.67;0.87;;;19.00;51.60;;;;;;5033852;28;20034;-64
2020/12/29 10:27:19;;;;;;;2.40;0.80;;;18.90;51.50;;;;;;5025974;28;20757;-65
2020/12/29 10:29:45;;;;;;;1.83;0.80;;;19.00;51.60;;;;;;5040316;28;20076;-65
2020/12/29 10:32:11;;;;;;;1.73;0.80;;;19.00;51.60;;;;;;5026310;28;20025;-64
2020/12/29 10:34:36;;;;;;;3.25;0.90;;;19.00;51.70;;;;;;5028171;28;20043;-64
2020/12/29 10:37:02;;;;;;;1.98;0.68;;;19.00;51.70;;;;;;5035455;28;20045;-64
2020/12/29 10:39:27;;;;;;;4.38;0.80;;;19.00;51.80;;;;;;5026876;28;20029;-65
2020/12/29 10:41:53;;;;;;;3.90;1.38;;;19.00;51.80;;;;;;5029655;28;20523;-64
2020/12/29 10:44:18;;;;;;;2.83;0.63;;;19.00;51.80;;;;;;5044972;28;20055;-63
2020/12/29 10:46:48;;;;;;;1.98;0.70;;;19.00;51.80;;;;;;5026767;28;20149;-64
2020/12/29 10:49:14;;;;;;;1.65;0.77;;;19.00;51.80;;;;;;5028865;28;20412;-64
2020/12/29 10:51:40;;;;;;;2.28;0.88;;;19.00;51.90;;;;;;5041395;28;20029;-64
2020/12/29 10:54:06;;;;;;;1.65;0.88;;;19.00;51.90;;;;;;5042939;28;20421;-64
2020/12/29 10:56:32;;;;;;;3.10;1.08;;;19.00;52.00;;;;;;5040422;28;20106;-64
2020/12/29 10:58:58;;;;;;;1.88;1.00;;;19.00;52.00;;;;;;5037998;28;20060;-64
2020/12/29 11:01:24;;;;;;;1.63;0.80;;;19.00;52.10;;;;;;5033099;28;20447;-64
2020/12/29 11:03:51;;;;;;;1.38;0.68;;;19.00;52.20;;;;;;5034505;28;20037;-63
2020/12/29 11:06:19;;;;;;;2.03;0.70;;;19.00;52.20;;;;;;5035394;28;20033;-63
2020/12/29 11:08:45;;;;;;;0.98;0.60;;;19.00;52.20;;;;;;5024319;28;20048;-63
2020/12/29 11:11:12;;;;;;;1.40;0.80;;;19.00;52.30;;;;;;5024165;28;20034;-64
2020/12/29 11:13:38;;;;;;;3.15;0.93;;;19.00;52.30;;;;;;5048350;28;20091;-64
2020/12/29 11:16:03;;;;;;;1.30;0.70;;;19.00;52.30;;;;;;5046465;28;20017;-64
2020/12/29 11:18:29;;;;;;;1.95;0.95;;;19.00;52.40;;;;;;5044790;28;20055;-63
2020/12/29 11:20:55;;;;;;;1.63;0.70;;;19.00;52.40;;;;;;5044831;28;20078;-64
2020/12/29 11:23:22;;;;;;;1.90;0.70;;;19.00;52.50;;;;;;5042539;28;20044;-63
2020/12/29 11:25:48;;;;;;;2.42;0.65;;;19.00;52.50;;;;;;5038739;28;20045;-64
2020/12/29 11:28:13;;;;;;;1.50;0.70;;;19.00;52.50;;;;;;5033797;28;20551;-64
2020/12/29 11:30:39;;;;;;;1.77;0.85;;;19.00;52.50;;;;;;5029690;28;20033;-64
2020/12/29 11:33:05;;;;;;;3.42;0.90;;;19.00;52.60;;;;;;5032988;28;20207;-63
2020/12/29 11:35:31;;;;;;;1.80;0.70;;;19.00;52.60;;;;;;5043218;28;20017;-64
2020/12/29 11:37:56;;;;;;;2.25;0.65;;;19.00;52.60;;;;;;5034106;28;20108;-65
2020/12/29 11:40:22;;;;;;;1.95;0.68;;;19.00;52.70;;;;;;5031282;28;20033;-64
2020/12/29 11:42:47;;;;;;;1.27;0.60;;;19.00;52.80;;;;;;5032675;28;20033;-64
2020/12/29 11:45:13;;;;;;;1.92;0.70;;;19.00;52.80;;;;;;5036670;28;20032;-64
2020/12/29 11:47:39;;;;;;;3.03;0.90;;;19.00;52.90;;;;;;5034560;28;20337;-64
2020/12/29 11:50:04;;;;;;;2.10;0.80;;;19.00;52.90;;;;;;5033213;28;20056;-64
2020/12/29 11:52:30;;;;;;;1.02;0.60;;;19.10;53.10;;;;;;5035279;28;20051;-65
2020/12/29 11:54:56;;;;;;;2.38;0.70;;;19.00;53.10;;;;;;5027051;28;20029;-64
2020/12/29 11:57:21;;;;;;;3.35;0.70;;;19.00;53.20;;;;;;5032079;28;20553;-65
2020/12/29 11:59:47;;;;;;;3.58;0.98;;;19.00;53.30;;;;;;5036415;28;20064;-64
2020/12/29 12:02:12;;;;;;;2.95;0.70;;;19.00;53.40;;;;;;5028645;28;20025;-65
2020/12/29 12:04:38;;;;;;;0.88;0.57;;;19.10;53.40;;;;;;5035946;28;20029;-65
2020/12/29 12:07:10;;;;;;;1.98;0.70;;;19.00;53.50;;;;;;5027843;28;20026;-66
2020/12/29 12:09:39;;;;;;;2.72;0.70;;;19.10;53.50;;;;;;5037104;28;20425;-65
2020/12/29 12:12:05;;;;;;;1.42;0.70;;;19.10;53.50;;;;;;5032765;28;20104;-65
2020/12/29 12:14:31;;;;;;;1.88;0.70;;;19.10;53.60;;;;;;5045172;28;20025;-65
2020/12/29 12:16:57;;;;;;;1.95;0.90;;;19.10;53.60;;;;;;5032211;28;20041;-64
2020/12/29 12:19:23;;;;;;;1.58;0.60;;;19.10;53.60;;;;;;5032729;28;20384;-65
2020/12/29 12:21:49;;;;;;;1.25;0.70;;;19.10;53.60;;;;;;5035470;28;20029;-65
2020/12/29 12:24:14;;;;;;;1.30;0.75;;;19.10;53.60;;;;;;5029964;28;20021;-65
2020/12/29 12:26:40;;;;;;;1.88;0.75;;;19.10;53.70;;;;;;5029284;28;20025;-65
2020/12/29 12:29:06;;;;;;;1.27;0.65;;;19.10;53.80;;;;;;5040819;28;20444;-64
2020/12/29 12:31:32;;;;;;;2.08;0.57;;;19.10;53.80;;;;;;5032427;28;20033;-66
2020/12/29 12:33:57;;;;;;;1.70;0.60;;;19.20;53.90;;;;;;5032752;28;20052;-65
2020/12/29 12:36:23;;;;;;;2.47;1.08;;;19.20;53.90;;;;;;5037278;28;20033;-66
2020/12/29 12:38:48;;;;;;;1.17;0.52;;;19.20;53.90;;;;;;5036042;28;20072;-66
2020/12/29 12:41:14;;;;;;;1.33;0.70;;;19.20;54.00;;;;;;5034075;28;20033;-65
2020/12/29 12:43:40;;;;;;;1.90;0.70;;;19.20;54.00;;;;;;5037751;28;20085;-65
2020/12/29 12:46:07;;;;;;;1.45;0.70;;;19.20;54.10;;;;;;5044518;28;20502;-66
2020/12/29 12:48:32;;;;;;;0.77;0.50;;;19.20;54.20;;;;;;5033117;28;20068;-65
2020/12/29 12:50:58;;;;;;;2.35;0.90;;;19.20;54.40;;;;;;5036042;28;20069;-65